sensor_id;sensor_type;location;lat;lon;timestamp;P1;durP1;ratioP1;P2;durP2;ratioP2
77226;SDS011;66234;47.642;19.144;2023-03-14T00:02:56;28.98;;;12.13;;
77226;SDS011;66234;47.642;19.144;2023-03-14T00:06:02;26.38;;;11.00;;
77226;SDS011;66234;47.642;19.144;2023-03-14T00:09:06;26.48;;;11.55;;
77226;SDS011;66234;47.642;19.144;2023-03-14T00:12:10;21.80;;;10.17;;
77226;SDS011;66234;47.642;19.144;2023-03-14T00:15:12;22.87;;;10.80;;
77226;SDS011;66234;47.642;19.144;2023-03-14T00:18:15;19.80;;;10.45;;
77226;SDS011;66234;47.642;19.144;2023-03-14T00:21:18;19.20;;;9.88;;
77226;SDS011;66234;47.642;19.144;2023-03-14T00:24:20;15.07;;;8.50;;
77226;SDS011;66234;47.642;19.144;2023-03-14T00:27:23;14.40;;;7.33;;
77226;SDS011;66234;47.642;19.144;2023-03-14T00:30:26;12.60;;;6.60;;
77226;SDS011;66234;47.642;19.144;2023-03-14T00:33:28;14.52;;;6.97;;
77226;SDS011;66234;47.642;19.144;2023-03-14T00:36:31;17.08;;;6.60;;
77226;SDS011;66234;47.642;19.144;2023-03-14T00:39:34;13.38;;;6.97;;
77226;SDS011;66234;47.642;19.144;2023-03-14T00:42:38;12.40;;;6.63;;
77226;SDS011;66234;47.642;19.144;2023-03-14T00:45:40;11.83;;;6.77;;
77226;SDS011;66234;47.642;19.144;2023-03-14T00:48:46;13.85;;;7.75;;
77226;SDS011;66234;47.642;19.144;2023-03-14T00:51:49;12.20;;;6.18;;
77226;SDS011;66234;47.642;19.144;2023-03-14T00:54:51;13.98;;;7.10;;
77226;SDS011;66234;47.642;19.144;2023-03-14T00:57:54;11.30;;;5.90;;
77226;SDS011;66234;47.642;19.144;2023-03-14T01:00:56;13.87;;;6.77;;
77226;SDS011;66234;47.642;19.144;2023-03-14T01:04:00;11.38;;;6.10;;
77226;SDS011;66234;47.642;19.144;2023-03-14T01:07:03;14.35;;;7.25;;
77226;SDS011;66234;47.642;19.144;2023-03-14T01:10:07;13.75;;;6.47;;
77226;SDS011;66234;47.642;19.144;2023-03-14T01:13:12;13.13;;;6.63;;
77226;SDS011;66234;47.642;19.144;2023-03-14T01:16:16;15.70;;;6.40;;
77226;SDS011;66234;47.642;19.144;2023-03-14T01:19:19;14.30;;;6.28;;
77226;SDS011;66234;47.642;19.144;2023-03-14T01:22:22;13.48;;;6.03;;
77226;SDS011;66234;47.642;19.144;2023-03-14T01:25:25;12.18;;;6.45;;
77226;SDS011;66234;47.642;19.144;2023-03-14T01:28:28;13.30;;;6.13;;
77226;SDS011;66234;47.642;19.144;2023-03-14T01:31:30;10.37;;;5.73;;
77226;SDS011;66234;47.642;19.144;2023-03-14T01:34:33;13.68;;;6.15;;
77226;SDS011;66234;47.642;19.144;2023-03-14T01:37:37;13.18;;;6.70;;
77226;SDS011;66234;47.642;19.144;2023-03-14T01:40:43;11.85;;;5.60;;
77226;SDS011;66234;47.642;19.144;2023-03-14T01:43:48;11.50;;;5.27;;
77226;SDS011;66234;47.642;19.144;2023-03-14T01:46:52;10.93;;;5.67;;
77226;SDS011;66234;47.642;19.144;2023-03-14T01:52:58;9.80;;;4.90;;
77226;SDS011;66234;47.642;19.144;2023-03-14T01:56:01;11.90;;;5.20;;
77226;SDS011;66234;47.642;19.144;2023-03-14T01:59:06;14.20;;;6.07;;
77226;SDS011;66234;47.642;19.144;2023-03-14T02:02:13;10.23;;;5.27;;
77226;SDS011;66234;47.642;19.144;2023-03-14T02:05:21;10.95;;;5.07;;
77226;SDS011;66234;47.642;19.144;2023-03-14T02:08:35;11.57;;;5.40;;
77226;SDS011;66234;47.642;19.144;2023-03-14T02:11:43;11.05;;;5.03;;
77226;SDS011;66234;47.642;19.144;2023-03-14T02:15:01;9.37;;;5.07;;
77226;SDS011;66234;47.642;19.144;2023-03-14T02:18:16;12.90;;;4.60;;
77226;SDS011;66234;47.642;19.144;2023-03-14T02:22:11;12.48;;;5.38;;
77226;SDS011;66234;47.642;19.144;2023-03-14T02:28:42;10.40;;;5.38;;
77226;SDS011;66234;47.642;19.144;2023-03-14T02:31:45;9.43;;;5.33;;
77226;SDS011;66234;47.642;19.144;2023-03-14T02:34:49;12.27;;;4.60;;
77226;SDS011;66234;47.642;19.144;2023-03-14T02:37:55;10.10;;;4.90;;
77226;SDS011;66234;47.642;19.144;2023-03-14T02:41:08;10.57;;;5.82;;
77226;SDS011;66234;47.642;19.144;2023-03-14T02:44:16;12.27;;;6.20;;
77226;SDS011;66234;47.642;19.144;2023-03-14T02:47:20;15.00;;;6.40;;
77226;SDS011;66234;47.642;19.144;2023-03-14T02:50:30;13.40;;;6.63;;
77226;SDS011;66234;47.642;19.144;2023-03-14T02:53:36;14.40;;;6.50;;
77226;SDS011;66234;47.642;19.144;2023-03-14T02:56:44;14.68;;;6.15;;
77226;SDS011;66234;47.642;19.144;2023-03-14T02:59:48;16.30;;;6.95;;
77226;SDS011;66234;47.642;19.144;2023-03-14T03:02:54;13.90;;;6.70;;
77226;SDS011;66234;47.642;19.144;2023-03-14T03:05:56;14.07;;;6.33;;
77226;SDS011;66234;47.642;19.144;2023-03-14T03:09:00;13.85;;;6.78;;
77226;SDS011;66234;47.642;19.144;2023-03-14T03:12:03;14.80;;;6.70;;
77226;SDS011;66234;47.642;19.144;2023-03-14T03:15:06;13.27;;;6.28;;
77226;SDS011;66234;47.642;19.144;2023-03-14T03:18:11;12.27;;;6.53;;
77226;SDS011;66234;47.642;19.144;2023-03-14T03:21:14;16.23;;;7.60;;
77226;SDS011;66234;47.642;19.144;2023-03-14T03:24:18;12.90;;;6.50;;
77226;SDS011;66234;47.642;19.144;2023-03-14T03:27:20;12.85;;;6.40;;
77226;SDS011;66234;47.642;19.144;2023-03-14T03:30:24;10.13;;;5.72;;
77226;SDS011;66234;47.642;19.144;2023-03-14T03:33:27;12.27;;;5.83;;
77226;SDS011;66234;47.642;19.144;2023-03-14T03:36:30;12.47;;;7.20;;
77226;SDS011;66234;47.642;19.144;2023-03-14T03:39:34;13.80;;;6.43;;
77226;SDS011;66234;47.642;19.144;2023-03-14T03:42:38;12.20;;;6.40;;
77226;SDS011;66234;47.642;19.144;2023-03-14T03:45:43;13.30;;;6.20;;
77226;SDS011;66234;47.642;19.144;2023-03-14T03:48:47;13.57;;;5.50;;
77226;SDS011;66234;47.642;19.144;2023-03-14T03:51:49;12.13;;;6.00;;
77226;SDS011;66234;47.642;19.144;2023-03-14T03:54:52;10.30;;;5.45;;
77226;SDS011;66234;47.642;19.144;2023-03-14T03:57:55;12.20;;;6.15;;
77226;SDS011;66234;47.642;19.144;2023-03-14T04:00:59;11.93;;;6.40;;
77226;SDS011;66234;47.642;19.144;2023-03-14T04:04:02;15.53;;;6.27;;
77226;SDS011;66234;47.642;19.144;2023-03-14T04:07:05;12.80;;;6.07;;
77226;SDS011;66234;47.642;19.144;2023-03-14T04:10:08;15.82;;;6.63;;
77226;SDS011;66234;47.642;19.144;2023-03-14T04:13:17;13.20;;;6.70;;
77226;SDS011;66234;47.642;19.144;2023-03-14T04:16:24;13.02;;;6.88;;
77226;SDS011;66234;47.642;19.144;2023-03-14T04:19:33;15.87;;;7.03;;
77226;SDS011;66234;47.642;19.144;2023-03-14T04:22:38;12.13;;;6.18;;
77226;SDS011;66234;47.642;19.144;2023-03-14T04:25:41;12.10;;;6.72;;
77226;SDS011;66234;47.642;19.144;2023-03-14T04:28:43;13.95;;;6.20;;
77226;SDS011;66234;47.642;19.144;2023-03-14T04:31:46;13.02;;;6.53;;
77226;SDS011;66234;47.642;19.144;2023-03-14T04:34:49;12.73;;;6.53;;
77226;SDS011;66234;47.642;19.144;2023-03-14T04:37:51;12.20;;;6.07;;
77226;SDS011;66234;47.642;19.144;2023-03-14T04:40:55;13.57;;;5.80;;
77226;SDS011;66234;47.642;19.144;2023-03-14T04:44:04;11.25;;;6.18;;
77226;SDS011;66234;47.642;19.144;2023-03-14T04:47:06;12.50;;;6.60;;
77226;SDS011;66234;47.642;19.144;2023-03-14T04:50:10;15.33;;;5.63;;
77226;SDS011;66234;47.642;19.144;2023-03-14T04:53:15;10.73;;;5.43;;
77226;SDS011;66234;47.642;19.144;2023-03-14T04:56:20;10.52;;;5.70;;
77226;SDS011;66234;47.642;19.144;2023-03-14T04:59:23;11.60;;;5.35;;
77226;SDS011;66234;47.642;19.144;2023-03-14T05:02:28;9.53;;;4.93;;
77226;SDS011;66234;47.642;19.144;2023-03-14T05:05:52;13.23;;;4.73;;
77226;SDS011;66234;47.642;19.144;2023-03-14T05:09:10;9.90;;;5.13;;
77226;SDS011;66234;47.642;19.144;2023-03-14T05:12:36;10.85;;;5.50;;
77226;SDS011;66234;47.642;19.144;2023-03-14T05:16:09;11.38;;;4.80;;
77226;SDS011;66234;47.642;19.144;2023-03-14T05:19:27;11.60;;;5.10;;
77226;SDS011;66234;47.642;19.144;2023-03-14T05:22:47;12.00;;;4.53;;
77226;SDS011;66234;47.642;19.144;2023-03-14T05:26:12;9.25;;;5.35;;
77226;SDS011;66234;47.642;19.144;2023-03-14T05:29:31;9.02;;;5.13;;
77226;SDS011;66234;47.642;19.144;2023-03-14T05:32:42;8.77;;;4.75;;
77226;SDS011;66234;47.642;19.144;2023-03-14T05:35:44;8.20;;;4.60;;
77226;SDS011;66234;47.642;19.144;2023-03-14T05:39:16;8.23;;;5.33;;
77226;SDS011;66234;47.642;19.144;2023-03-14T05:42:33;10.55;;;5.40;;
77226;SDS011;66234;47.642;19.144;2023-03-14T05:46:05;10.93;;;5.63;;
77226;SDS011;66234;47.642;19.144;2023-03-14T05:49:25;12.00;;;6.47;;
77226;SDS011;66234;47.642;19.144;2023-03-14T05:52:48;10.73;;;6.07;;
77226;SDS011;66234;47.642;19.144;2023-03-14T05:56:05;10.33;;;5.83;;
77226;SDS011;66234;47.642;19.144;2023-03-14T05:59:29;11.02;;;5.80;;
77226;SDS011;66234;47.642;19.144;2023-03-14T06:02:38;15.75;;;6.47;;
77226;SDS011;66234;47.642;19.144;2023-03-14T06:05:51;14.27;;;7.22;;
77226;SDS011;66234;47.642;19.144;2023-03-14T06:08:56;15.00;;;7.73;;
77226;SDS011;66234;47.642;19.144;2023-03-14T06:12:01;16.93;;;7.73;;
77226;SDS011;66234;47.642;19.144;2023-03-14T06:15:10;17.27;;;8.23;;
77226;SDS011;66234;47.642;19.144;2023-03-14T06:18:13;17.10;;;7.97;;
77226;SDS011;66234;47.642;19.144;2023-03-14T06:21:17;13.18;;;6.82;;
77226;SDS011;66234;47.642;19.144;2023-03-14T06:24:23;11.23;;;6.13;;
77226;SDS011;66234;47.642;19.144;2023-03-14T06:27:27;8.87;;;5.33;;
77226;SDS011;66234;47.642;19.144;2023-03-14T06:30:31;9.00;;;5.55;;
77226;SDS011;66234;47.642;19.144;2023-03-14T06:33:33;16.10;;;6.40;;
77226;SDS011;66234;47.642;19.144;2023-03-14T06:36:39;11.25;;;5.18;;
77226;SDS011;66234;47.642;19.144;2023-03-14T06:39:43;13.53;;;5.67;;
77226;SDS011;66234;47.642;19.144;2023-03-14T06:42:55;21.23;;;6.30;;
77226;SDS011;66234;47.642;19.144;2023-03-14T06:46:00;12.45;;;5.47;;
77226;SDS011;66234;47.642;19.144;2023-03-14T06:49:05;17.15;;;5.95;;
77226;SDS011;66234;47.642;19.144;2023-03-14T06:52:11;13.35;;;6.47;;
77226;SDS011;66234;47.642;19.144;2023-03-14T06:55:14;17.60;;;7.43;;
77226;SDS011;66234;47.642;19.144;2023-03-14T06:58:19;14.23;;;5.90;;
77226;SDS011;66234;47.642;19.144;2023-03-14T07:01:26;18.70;;;6.63;;
77226;SDS011;66234;47.642;19.144;2023-03-14T07:04:38;11.40;;;5.57;;
77226;SDS011;66234;47.642;19.144;2023-03-14T07:07:41;11.57;;;5.38;;
77226;SDS011;66234;47.642;19.144;2023-03-14T07:10:44;10.47;;;6.07;;
77226;SDS011;66234;47.642;19.144;2023-03-14T07:13:47;10.17;;;5.43;;
77226;SDS011;66234;47.642;19.144;2023-03-14T07:16:50;10.82;;;5.80;;
77226;SDS011;66234;47.642;19.144;2023-03-14T07:19:53;11.32;;;5.95;;
77226;SDS011;66234;47.642;19.144;2023-03-14T07:22:55;11.65;;;5.80;;
77226;SDS011;66234;47.642;19.144;2023-03-14T07:26:10;8.23;;;5.53;;
77226;SDS011;66234;47.642;19.144;2023-03-14T07:29:19;11.83;;;6.47;;
77226;SDS011;66234;47.642;19.144;2023-03-14T07:32:23;12.00;;;5.65;;
77226;SDS011;66234;47.642;19.144;2023-03-14T07:35:26;9.43;;;5.70;;
77226;SDS011;66234;47.642;19.144;2023-03-14T07:38:29;11.95;;;5.35;;
77226;SDS011;66234;47.642;19.144;2023-03-14T07:42:01;10.03;;;5.50;;
77226;SDS011;66234;47.642;19.144;2023-03-14T07:45:33;9.87;;;5.37;;
77226;SDS011;66234;47.642;19.144;2023-03-14T07:48:44;9.40;;;5.22;;
77226;SDS011;66234;47.642;19.144;2023-03-14T07:51:47;8.98;;;4.97;;
77226;SDS011;66234;47.642;19.144;2023-03-14T07:54:51;10.00;;;4.90;;
77226;SDS011;66234;47.642;19.144;2023-03-14T07:57:54;10.03;;;5.17;;
77226;SDS011;66234;47.642;19.144;2023-03-14T08:00:58;9.40;;;5.40;;
77226;SDS011;66234;47.642;19.144;2023-03-14T08:04:01;9.52;;;6.03;;
77226;SDS011;66234;47.642;19.144;2023-03-14T08:07:03;12.55;;;4.93;;
77226;SDS011;66234;47.642;19.144;2023-03-14T08:10:08;9.52;;;5.18;;
77226;SDS011;66234;47.642;19.144;2023-03-14T08:13:13;9.60;;;5.40;;
77226;SDS011;66234;47.642;19.144;2023-03-14T08:16:16;10.77;;;5.07;;
77226;SDS011;66234;47.642;19.144;2023-03-14T08:19:19;11.38;;;5.65;;
77226;SDS011;66234;47.642;19.144;2023-03-14T08:22:23;8.32;;;4.78;;
77226;SDS011;66234;47.642;19.144;2023-03-14T08:25:26;9.98;;;5.30;;
77226;SDS011;66234;47.642;19.144;2023-03-14T08:28:37;8.57;;;4.13;;
77226;SDS011;66234;47.642;19.144;2023-03-14T08:31:40;11.47;;;4.87;;
77226;SDS011;66234;47.642;19.144;2023-03-14T08:34:43;10.43;;;5.93;;
77226;SDS011;66234;47.642;19.144;2023-03-14T08:37:46;9.95;;;4.82;;
77226;SDS011;66234;47.642;19.144;2023-03-14T08:40:50;8.43;;;4.47;;
77226;SDS011;66234;47.642;19.144;2023-03-14T08:43:57;8.70;;;4.90;;
77226;SDS011;66234;47.642;19.144;2023-03-14T08:47:00;8.43;;;4.43;;
77226;SDS011;66234;47.642;19.144;2023-03-14T08:50:03;13.70;;;4.57;;
77226;SDS011;66234;47.642;19.144;2023-03-14T08:53:08;10.18;;;4.55;;
77226;SDS011;66234;47.642;19.144;2023-03-14T08:56:11;11.60;;;4.45;;
77226;SDS011;66234;47.642;19.144;2023-03-14T08:59:13;11.23;;;4.53;;
77226;SDS011;66234;47.642;19.144;2023-03-14T09:02:16;6.77;;;3.60;;
77226;SDS011;66234;47.642;19.144;2023-03-14T09:05:18;8.25;;;4.40;;
77226;SDS011;66234;47.642;19.144;2023-03-14T09:08:22;7.45;;;3.70;;
77226;SDS011;66234;47.642;19.144;2023-03-14T09:11:24;10.77;;;4.05;;
77226;SDS011;66234;47.642;19.144;2023-03-14T09:14:28;6.73;;;3.60;;
77226;SDS011;66234;47.642;19.144;2023-03-14T09:17:31;9.63;;;3.43;;
77226;SDS011;66234;47.642;19.144;2023-03-14T09:20:35;6.38;;;3.22;;
77226;SDS011;66234;47.642;19.144;2023-03-14T09:23:38;7.50;;;3.35;;
77226;SDS011;66234;47.642;19.144;2023-03-14T09:26:42;6.50;;;3.20;;
77226;SDS011;66234;47.642;19.144;2023-03-14T09:29:45;7.60;;;2.90;;
77226;SDS011;66234;47.642;19.144;2023-03-14T09:32:47;5.77;;;2.50;;
77226;SDS011;66234;47.642;19.144;2023-03-14T09:35:50;5.93;;;2.92;;
77226;SDS011;66234;47.642;19.144;2023-03-14T09:38:53;8.75;;;3.00;;
77226;SDS011;66234;47.642;19.144;2023-03-14T09:41:56;6.18;;;4.07;;
77226;SDS011;66234;47.642;19.144;2023-03-14T09:45:04;6.30;;;4.03;;
77226;SDS011;66234;47.642;19.144;2023-03-14T09:48:16;6.50;;;3.27;;
77226;SDS011;66234;47.642;19.144;2023-03-14T09:51:22;14.32;;;3.92;;
77226;SDS011;66234;47.642;19.144;2023-03-14T09:57:41;15.63;;;3.45;;
77226;SDS011;66234;47.642;19.144;2023-03-14T10:00:44;6.37;;;3.10;;
77226;SDS011;66234;47.642;19.144;2023-03-14T10:03:46;5.13;;;2.70;;
77226;SDS011;66234;47.642;19.144;2023-03-14T10:06:49;8.45;;;3.20;;
77226;SDS011;66234;47.642;19.144;2023-03-14T10:09:52;5.88;;;2.55;;
77226;SDS011;66234;47.642;19.144;2023-03-14T10:12:59;8.15;;;3.10;;
77226;SDS011;66234;47.642;19.144;2023-03-14T10:16:10;7.30;;;3.37;;
77226;SDS011;66234;47.642;19.144;2023-03-14T10:19:14;6.23;;;2.77;;
77226;SDS011;66234;47.642;19.144;2023-03-14T10:22:18;4.82;;;2.75;;
77226;SDS011;66234;47.642;19.144;2023-03-14T10:25:31;7.97;;;2.60;;
77226;SDS011;66234;47.642;19.144;2023-03-14T10:28:43;11.77;;;3.30;;
77226;SDS011;66234;47.642;19.144;2023-03-14T10:31:50;7.93;;;3.40;;
77226;SDS011;66234;47.642;19.144;2023-03-14T10:38:17;7.82;;;3.25;;
77226;SDS011;66234;47.642;19.144;2023-03-14T10:41:24;12.75;;;4.00;;
77226;SDS011;66234;47.642;19.144;2023-03-14T10:44:28;10.50;;;4.00;;
77226;SDS011;66234;47.642;19.144;2023-03-14T10:47:32;7.27;;;3.40;;
77226;SDS011;66234;47.642;19.144;2023-03-14T10:50:53;9.13;;;3.70;;
77226;SDS011;66234;47.642;19.144;2023-03-14T10:54:19;10.07;;;2.55;;
77226;SDS011;66234;47.642;19.144;2023-03-14T10:57:29;7.63;;;2.15;;
77226;SDS011;66234;47.642;19.144;2023-03-14T11:00:39;8.90;;;2.83;;
77226;SDS011;66234;47.642;19.144;2023-03-14T11:03:50;3.40;;;1.23;;
77226;SDS011;66234;47.642;19.144;2023-03-14T11:07:25;8.87;;;1.60;;
77226;SDS011;66234;47.642;19.144;2023-03-14T11:10:36;4.25;;;1.50;;
77226;SDS011;66234;47.642;19.144;2023-03-14T11:17:02;4.25;;;1.73;;
77226;SDS011;66234;47.642;19.144;2023-03-14T11:20:26;6.53;;;1.53;;
77226;SDS011;66234;47.642;19.144;2023-03-14T11:27:23;4.63;;;1.40;;
77226;SDS011;66234;47.642;19.144;2023-03-14T11:37:01;3.50;;;1.23;;
77226;SDS011;66234;47.642;19.144;2023-03-14T11:40:17;3.00;;;1.00;;
77226;SDS011;66234;47.642;19.144;2023-03-14T11:43:24;2.00;;;1.05;;
77226;SDS011;66234;47.642;19.144;2023-03-14T11:46:33;5.38;;;1.23;;
77226;SDS011;66234;47.642;19.144;2023-03-14T11:49:45;4.30;;;1.52;;
77226;SDS011;66234;47.642;19.144;2023-03-14T11:52:53;2.80;;;1.60;;
77226;SDS011;66234;47.642;19.144;2023-03-14T11:55:58;6.13;;;1.67;;
77226;SDS011;66234;47.642;19.144;2023-03-14T11:59:03;5.38;;;1.65;;
77226;SDS011;66234;47.642;19.144;2023-03-14T12:05:35;5.53;;;0.88;;
77226;SDS011;66234;47.642;19.144;2023-03-14T12:08:50;1.80;;;1.10;;
77226;SDS011;66234;47.642;19.144;2023-03-14T12:11:59;2.73;;;0.63;;
77226;SDS011;66234;47.642;19.144;2023-03-14T12:15:04;1.83;;;0.65;;
77226;SDS011;66234;47.642;19.144;2023-03-14T12:18:42;1.48;;;0.60;;
77226;SDS011;66234;47.642;19.144;2023-03-14T12:21:49;3.45;;;0.70;;
77226;SDS011;66234;47.642;19.144;2023-03-14T12:25:05;3.70;;;0.93;;
77226;SDS011;66234;47.642;19.144;2023-03-14T12:28:18;5.20;;;0.80;;
77226;SDS011;66234;47.642;19.144;2023-03-14T12:34:38;1.50;;;0.60;;
77226;SDS011;66234;47.642;19.144;2023-03-14T12:37:44;3.05;;;0.82;;
77226;SDS011;66234;47.642;19.144;2023-03-14T12:41:10;4.37;;;0.80;;
77226;SDS011;66234;47.642;19.144;2023-03-14T12:50:44;4.40;;;1.10;;
77226;SDS011;66234;47.642;19.144;2023-03-14T12:57:32;2.00;;;0.77;;
77226;SDS011;66234;47.642;19.144;2023-03-14T13:00:40;2.30;;;0.80;;
77226;SDS011;66234;47.642;19.144;2023-03-14T13:03:54;3.47;;;1.25;;
77226;SDS011;66234;47.642;19.144;2023-03-14T13:07:00;3.45;;;0.90;;
77226;SDS011;66234;47.642;19.144;2023-03-14T13:13:23;3.87;;;1.10;;
77226;SDS011;66234;47.642;19.144;2023-03-14T13:16:29;3.17;;;1.10;;
77226;SDS011;66234;47.642;19.144;2023-03-14T13:19:33;3.40;;;1.00;;
77226;SDS011;66234;47.642;19.144;2023-03-14T13:22:37;2.47;;;1.10;;
77226;SDS011;66234;47.642;19.144;2023-03-14T13:25:40;4.32;;;1.20;;
77226;SDS011;66234;47.642;19.144;2023-03-14T13:28:43;4.73;;;1.97;;
77226;SDS011;66234;47.642;19.144;2023-03-14T13:31:46;3.27;;;1.10;;
77226;SDS011;66234;47.642;19.144;2023-03-14T13:34:51;3.97;;;1.27;;
77226;SDS011;66234;47.642;19.144;2023-03-14T13:38:00;2.97;;;1.08;;
77226;SDS011;66234;47.642;19.144;2023-03-14T13:41:13;2.88;;;1.20;;
77226;SDS011;66234;47.642;19.144;2023-03-14T13:44:17;3.33;;;1.17;;
77226;SDS011;66234;47.642;19.144;2023-03-14T13:47:27;1.80;;;1.17;;
77226;SDS011;66234;47.642;19.144;2023-03-14T13:50:30;4.13;;;1.00;;
77226;SDS011;66234;47.642;19.144;2023-03-14T13:53:42;3.72;;;1.52;;
77226;SDS011;66234;47.642;19.144;2023-03-14T13:56:57;3.35;;;1.70;;
77226;SDS011;66234;47.642;19.144;2023-03-14T14:00:06;1.87;;;1.30;;
77226;SDS011;66234;47.642;19.144;2023-03-14T14:03:14;2.37;;;1.60;;
77226;SDS011;66234;47.642;19.144;2023-03-14T14:06:28;5.63;;;2.00;;
77226;SDS011;66234;47.642;19.144;2023-03-14T14:10:05;4.35;;;2.28;;
77226;SDS011;66234;47.642;19.144;2023-03-14T14:13:03;5.85;;;2.30;;
77226;SDS011;66234;47.642;19.144;2023-03-14T14:16:09;3.20;;;2.10;;
77226;SDS011;66234;47.642;19.144;2023-03-14T14:19:12;4.13;;;1.70;;
77226;SDS011;66234;47.642;19.144;2023-03-14T14:22:16;3.30;;;1.63;;
77226;SDS011;66234;47.642;19.144;2023-03-14T14:25:21;5.25;;;1.25;;
77226;SDS011;66234;47.642;19.144;2023-03-14T14:28:26;4.57;;;1.95;;
77226;SDS011;66234;47.642;19.144;2023-03-14T14:31:32;5.67;;;1.90;;
77226;SDS011;66234;47.642;19.144;2023-03-14T14:34:45;3.80;;;1.50;;
77226;SDS011;66234;47.642;19.144;2023-03-14T14:37:57;4.78;;;1.40;;
77226;SDS011;66234;47.642;19.144;2023-03-14T14:41:01;5.20;;;1.58;;
77226;SDS011;66234;47.642;19.144;2023-03-14T14:44:05;3.80;;;1.70;;
77226;SDS011;66234;47.642;19.144;2023-03-14T14:47:11;2.23;;;1.17;;
77226;SDS011;66234;47.642;19.144;2023-03-14T14:53:42;7.78;;;1.65;;
77226;SDS011;66234;47.642;19.144;2023-03-14T14:56:46;5.50;;;2.10;;
77226;SDS011;66234;47.642;19.144;2023-03-14T15:00:01;8.48;;;3.88;;
77226;SDS011;66234;47.642;19.144;2023-03-14T15:03:12;10.70;;;4.27;;
77226;SDS011;66234;47.642;19.144;2023-03-14T15:06:17;10.37;;;2.90;;
77226;SDS011;66234;47.642;19.144;2023-03-14T15:09:20;5.03;;;2.20;;
77226;SDS011;66234;47.642;19.144;2023-03-14T15:12:23;6.30;;;2.60;;
77226;SDS011;66234;47.642;19.144;2023-03-14T15:15:26;7.50;;;2.88;;
77226;SDS011;66234;47.642;19.144;2023-03-14T15:18:29;9.50;;;2.90;;
77226;SDS011;66234;47.642;19.144;2023-03-14T15:21:33;11.10;;;2.50;;
77226;SDS011;66234;47.642;19.144;2023-03-14T15:24:36;4.95;;;2.55;;
77226;SDS011;66234;47.642;19.144;2023-03-14T15:27:38;8.15;;;2.40;;
77226;SDS011;66234;47.642;19.144;2023-03-14T15:30:46;5.93;;;2.20;;
77226;SDS011;66234;47.642;19.144;2023-03-14T15:33:56;6.60;;;3.30;;
77226;SDS011;66234;47.642;19.144;2023-03-14T15:36:59;15.57;;;4.00;;
77226;SDS011;66234;47.642;19.144;2023-03-14T15:40:02;6.70;;;3.08;;
77226;SDS011;66234;47.642;19.144;2023-03-14T15:43:14;5.45;;;2.75;;
77226;SDS011;66234;47.642;19.144;2023-03-14T15:46:16;6.80;;;3.17;;
77226;SDS011;66234;47.642;19.144;2023-03-14T15:49:20;4.30;;;1.43;;
77226;SDS011;66234;47.642;19.144;2023-03-14T15:52:22;4.03;;;1.50;;
77226;SDS011;66234;47.642;19.144;2023-03-14T15:55:25;3.15;;;1.00;;
77226;SDS011;66234;47.642;19.144;2023-03-14T15:58:28;2.38;;;1.13;;
77226;SDS011;66234;47.642;19.144;2023-03-14T16:01:30;2.60;;;0.90;;
77226;SDS011;66234;47.642;19.144;2023-03-14T16:04:33;2.13;;;1.17;;
77226;SDS011;66234;47.642;19.144;2023-03-14T16:07:36;3.00;;;1.40;;
77226;SDS011;66234;47.642;19.144;2023-03-14T16:10:39;3.03;;;1.05;;
77226;SDS011;66234;47.642;19.144;2023-03-14T16:13:42;5.00;;;1.25;;
77226;SDS011;66234;47.642;19.144;2023-03-14T16:16:45;1.98;;;0.57;;
77226;SDS011;66234;47.642;19.144;2023-03-14T16:19:48;4.40;;;2.57;;
77226;SDS011;66234;47.642;19.144;2023-03-14T16:22:50;3.07;;;1.20;;
77226;SDS011;66234;47.642;19.144;2023-03-14T16:25:53;3.85;;;1.05;;
77226;SDS011;66234;47.642;19.144;2023-03-14T16:28:57;3.47;;;1.00;;
77226;SDS011;66234;47.642;19.144;2023-03-14T16:31:59;3.08;;;1.23;;
77226;SDS011;66234;47.642;19.144;2023-03-14T16:35:02;2.87;;;1.10;;
77226;SDS011;66234;47.642;19.144;2023-03-14T16:38:05;4.07;;;1.20;;
77226;SDS011;66234;47.642;19.144;2023-03-14T16:41:10;3.83;;;1.48;;
77226;SDS011;66234;47.642;19.144;2023-03-14T16:44:15;3.10;;;1.25;;
77226;SDS011;66234;47.642;19.144;2023-03-14T16:47:17;3.95;;;1.20;;
77226;SDS011;66234;47.642;19.144;2023-03-14T16:50:21;1.90;;;1.03;;
77226;SDS011;66234;47.642;19.144;2023-03-14T16:53:24;3.97;;;1.50;;
77226;SDS011;66234;47.642;19.144;2023-03-14T16:56:30;3.55;;;1.40;;
77226;SDS011;66234;47.642;19.144;2023-03-14T16:59:32;1.20;;;1.00;;
77226;SDS011;66234;47.642;19.144;2023-03-14T17:02:37;2.45;;;1.42;;
77226;SDS011;66234;47.642;19.144;2023-03-14T17:05:46;2.00;;;1.00;;
77226;SDS011;66234;47.642;19.144;2023-03-14T17:08:52;5.23;;;1.60;;
77226;SDS011;66234;47.642;19.144;2023-03-14T17:11:57;2.63;;;1.70;;
77226;SDS011;66234;47.642;19.144;2023-03-14T17:15:00;3.15;;;1.10;;
77226;SDS011;66234;47.642;19.144;2023-03-14T17:18:02;1.73;;;0.90;;
77226;SDS011;66234;47.642;19.144;2023-03-14T17:21:06;1.50;;;1.07;;
77226;SDS011;66234;47.642;19.144;2023-03-14T17:24:09;2.57;;;0.80;;
77226;SDS011;66234;47.642;19.144;2023-03-14T17:27:12;2.47;;;1.02;;
77226;SDS011;66234;47.642;19.144;2023-03-14T17:30:22;2.80;;;1.00;;
77226;SDS011;66234;47.642;19.144;2023-03-14T17:33:25;2.53;;;1.08;;
77226;SDS011;66234;47.642;19.144;2023-03-14T17:36:28;1.43;;;0.97;;
77226;SDS011;66234;47.642;19.144;2023-03-14T17:39:34;2.60;;;1.10;;
77226;SDS011;66234;47.642;19.144;2023-03-14T17:42:37;2.10;;;1.48;;
77226;SDS011;66234;47.642;19.144;2023-03-14T17:45:41;3.15;;;1.30;;
77226;SDS011;66234;47.642;19.144;2023-03-14T17:48:45;2.17;;;1.13;;
77226;SDS011;66234;47.642;19.144;2023-03-14T17:51:50;2.17;;;1.30;;
77226;SDS011;66234;47.642;19.144;2023-03-14T17:54:53;3.27;;;1.50;;
77226;SDS011;66234;47.642;19.144;2023-03-14T17:57:56;6.22;;;2.83;;
77226;SDS011;66234;47.642;19.144;2023-03-14T18:01:07;6.05;;;2.25;;
77226;SDS011;66234;47.642;19.144;2023-03-14T18:04:11;7.07;;;2.85;;
77226;SDS011;66234;47.642;19.144;2023-03-14T18:07:15;6.07;;;3.20;;
77226;SDS011;66234;47.642;19.144;2023-03-14T18:10:20;3.77;;;2.27;;
77226;SDS011;66234;47.642;19.144;2023-03-14T18:13:23;4.43;;;1.83;;
77226;SDS011;66234;47.642;19.144;2023-03-14T18:16:25;3.83;;;1.02;;
77226;SDS011;66234;47.642;19.144;2023-03-14T18:19:28;1.67;;;0.88;;
77226;SDS011;66234;47.642;19.144;2023-03-14T18:22:31;2.80;;;1.20;;
77226;SDS011;66234;47.642;19.144;2023-03-14T18:25:34;5.73;;;1.20;;
77226;SDS011;66234;47.642;19.144;2023-03-14T18:28:37;3.00;;;1.10;;
77226;SDS011;66234;47.642;19.144;2023-03-14T18:31:40;2.85;;;1.38;;
77226;SDS011;66234;47.642;19.144;2023-03-14T18:34:44;3.85;;;1.60;;
77226;SDS011;66234;47.642;19.144;2023-03-14T18:37:47;1.77;;;1.33;;
77226;SDS011;66234;47.642;19.144;2023-03-14T18:40:50;2.63;;;1.47;;
77226;SDS011;66234;47.642;19.144;2023-03-14T18:43:54;6.18;;;2.22;;
77226;SDS011;66234;47.642;19.144;2023-03-14T18:46:57;3.30;;;1.30;;
77226;SDS011;66234;47.642;19.144;2023-03-14T18:50:04;2.53;;;1.48;;
77226;SDS011;66234;47.642;19.144;2023-03-14T18:53:10;3.37;;;1.37;;
77226;SDS011;66234;47.642;19.144;2023-03-14T18:56:12;2.47;;;1.40;;
77226;SDS011;66234;47.642;19.144;2023-03-14T18:59:16;5.40;;;1.85;;
77226;SDS011;66234;47.642;19.144;2023-03-14T19:02:19;3.92;;;1.63;;
77226;SDS011;66234;47.642;19.144;2023-03-14T19:05:22;1.95;;;0.80;;
77226;SDS011;66234;47.642;19.144;2023-03-14T19:08:26;3.73;;;1.20;;
77226;SDS011;66234;47.642;19.144;2023-03-14T19:11:30;2.53;;;1.10;;